KGLD/GLD METAR and TAF weather

Enter ICAO airport designator
Station Type Date Time Source
KGLD METAR 2021/10/22 19:53 UTC NOAA

KGLD 221953Z AUTO VRB03KT 10SM CLR 26/M03 A2995 RMK AO2 SLP114 T02561033


Station Type Date Time Source
KGLD Decoded METAR 2021/10/22 19:53 UTC NOAA

GOODLAND RENNER FIELD, KS, United States (KGLD) 39-22N 101-42W 1114M
Oct 22, 2021 - 03:53 PM EDT / 2021.10.22 1953 UTC
Wind: Variable at 3 MPH (3 KT):0
Visibility: 10 mile(s):0
Sky conditions: clear
Temperature: 78.1 F (25.6 C)
Dew Point: 26.1 F (-3.3 C)
Relative Humidity: 14%
Pressure (altimeter): 29.95 in. Hg (1014 hPa)
ob: KGLD 221953Z AUTO VRB03KT 10SM CLR 26/M03 A2995 RMK AO2 SLP114 T02561033
cycle: 20

Station Type Date Time Source
KGLD TAF 2021/10/22 18:22 UTC NOAA

TAF KGLD 221720Z 2218/2318 25009KT P6SM SKC
FM222300 19007KT P6SM SKC
FM231400 10008KT P6SM FEW035

Example: see airport list